sensor_id;sensor_type;location;lat;lon;timestamp;P1;durP1;ratioP1;P2;durP2;ratioP2
29954;SDS011;68448;51.188;6.868;2024-03-08T00:00:30;26.73;;;16.20;;
29954;SDS011;68448;51.188;6.868;2024-03-08T00:02:57;28.70;;;16.90;;
29954;SDS011;68448;51.188;6.868;2024-03-08T00:05:24;33.37;;;16.60;;
29954;SDS011;68448;51.188;6.868;2024-03-08T00:07:52;29.83;;;16.23;;
29954;SDS011;68448;51.188;6.868;2024-03-08T00:10:19;26.13;;;16.87;;
29954;SDS011;68448;51.188;6.868;2024-03-08T00:12:46;28.20;;;17.40;;
29954;SDS011;68448;51.188;6.868;2024-03-08T00:15:15;23.17;;;14.70;;
29954;SDS011;68448;51.188;6.868;2024-03-08T00:17:44;28.83;;;17.03;;
29954;SDS011;68448;51.188;6.868;2024-03-08T00:20:12;31.10;;;16.13;;
29954;SDS011;68448;51.188;6.868;2024-03-08T00:22:39;28.10;;;16.80;;
29954;SDS011;68448;51.188;6.868;2024-03-08T00:25:07;27.80;;;15.13;;
29954;SDS011;68448;51.188;6.868;2024-03-08T00:27:34;27.87;;;16.00;;
29954;SDS011;68448;51.188;6.868;2024-03-08T00:30:01;27.60;;;16.60;;
29954;SDS011;68448;51.188;6.868;2024-03-08T00:32:30;27.07;;;17.63;;
29954;SDS011;68448;51.188;6.868;2024-03-08T00:34:58;33.47;;;16.27;;
29954;SDS011;68448;51.188;6.868;2024-03-08T00:37:25;27.07;;;16.70;;
29954;SDS011;68448;51.188;6.868;2024-03-08T00:39:53;30.20;;;17.20;;
29954;SDS011;68448;51.188;6.868;2024-03-08T00:42:20;30.80;;;16.93;;
29954;SDS011;68448;51.188;6.868;2024-03-08T00:44:47;32.20;;;19.57;;
29954;SDS011;68448;51.188;6.868;2024-03-08T00:47:15;27.43;;;15.90;;
29954;SDS011;68448;51.188;6.868;2024-03-08T00:49:43;31.80;;;16.63;;
29954;SDS011;68448;51.188;6.868;2024-03-08T00:52:10;27.87;;;16.00;;
29954;SDS011;68448;51.188;6.868;2024-03-08T00:54:37;36.83;;;17.10;;
29954;SDS011;68448;51.188;6.868;2024-03-08T00:57:05;30.97;;;18.17;;
29954;SDS011;68448;51.188;6.868;2024-03-08T00:59:32;28.70;;;16.47;;
29954;SDS011;68448;51.188;6.868;2024-03-08T01:01:59;29.20;;;16.77;;
29954;SDS011;68448;51.188;6.868;2024-03-08T01:04:27;30.53;;;18.57;;
29954;SDS011;68448;51.188;6.868;2024-03-08T01:06:56;28.07;;;17.30;;
29954;SDS011;68448;51.188;6.868;2024-03-08T01:09:23;31.73;;;18.27;;
29954;SDS011;68448;51.188;6.868;2024-03-08T01:11:50;28.90;;;16.83;;
29954;SDS011;68448;51.188;6.868;2024-03-08T01:14:18;28.10;;;16.93;;
29954;SDS011;68448;51.188;6.868;2024-03-08T01:16:45;29.70;;;17.50;;
29954;SDS011;68448;51.188;6.868;2024-03-08T01:19:12;34.70;;;18.07;;
29954;SDS011;68448;51.188;6.868;2024-03-08T01:21:39;34.30;;;18.73;;
29954;SDS011;68448;51.188;6.868;2024-03-08T01:24:08;27.93;;;16.83;;
29954;SDS011;68448;51.188;6.868;2024-03-08T01:26:35;33.47;;;17.90;;
29954;SDS011;68448;51.188;6.868;2024-03-08T01:29:03;28.43;;;18.10;;
29954;SDS011;68448;51.188;6.868;2024-03-08T01:31:30;31.37;;;18.53;;
29954;SDS011;68448;51.188;6.868;2024-03-08T01:33:57;32.37;;;16.73;;
29954;SDS011;68448;51.188;6.868;2024-03-08T01:36:25;28.97;;;16.47;;
29954;SDS011;68448;51.188;6.868;2024-03-08T01:38:52;27.10;;;15.83;;
29954;SDS011;68448;51.188;6.868;2024-03-08T01:41:21;29.70;;;18.17;;
29954;SDS011;68448;51.188;6.868;2024-03-08T01:43:48;35.20;;;17.60;;
29954;SDS011;68448;51.188;6.868;2024-03-08T01:46:19;33.43;;;15.07;;
29954;SDS011;68448;51.188;6.868;2024-03-08T01:48:47;32.27;;;17.40;;
29954;SDS011;68448;51.188;6.868;2024-03-08T01:51:14;34.97;;;19.27;;
29954;SDS011;68448;51.188;6.868;2024-03-08T01:53:42;33.67;;;16.87;;
29954;SDS011;68448;51.188;6.868;2024-03-08T01:56:11;30.60;;;17.30;;
29954;SDS011;68448;51.188;6.868;2024-03-08T01:58:39;31.53;;;16.83;;
29954;SDS011;68448;51.188;6.868;2024-03-08T02:01:07;30.70;;;17.47;;
29954;SDS011;68448;51.188;6.868;2024-03-08T02:03:35;32.67;;;17.10;;
29954;SDS011;68448;51.188;6.868;2024-03-08T02:06:02;32.83;;;16.80;;
29954;SDS011;68448;51.188;6.868;2024-03-08T02:08:29;33.33;;;18.90;;
29954;SDS011;68448;51.188;6.868;2024-03-08T02:10:56;28.70;;;16.70;;
29954;SDS011;68448;51.188;6.868;2024-03-08T02:13:24;30.07;;;18.17;;
29954;SDS011;68448;51.188;6.868;2024-03-08T02:15:53;34.40;;;19.23;;
29954;SDS011;68448;51.188;6.868;2024-03-08T02:18:20;35.00;;;19.00;;
29954;SDS011;68448;51.188;6.868;2024-03-08T02:20:49;30.27;;;17.97;;
29954;SDS011;68448;51.188;6.868;2024-03-08T02:23:18;31.13;;;17.50;;
29954;SDS011;68448;51.188;6.868;2024-03-08T02:25:45;33.20;;;17.50;;
29954;SDS011;68448;51.188;6.868;2024-03-08T02:28:12;34.17;;;18.17;;
29954;SDS011;68448;51.188;6.868;2024-03-08T02:30:40;31.13;;;18.30;;
29954;SDS011;68448;51.188;6.868;2024-03-08T02:33:07;32.17;;;18.20;;
29954;SDS011;68448;51.188;6.868;2024-03-08T02:35:35;32.77;;;17.80;;
29954;SDS011;68448;51.188;6.868;2024-03-08T02:38:03;31.50;;;17.57;;
29954;SDS011;68448;51.188;6.868;2024-03-08T02:40:31;36.77;;;18.37;;
29954;SDS011;68448;51.188;6.868;2024-03-08T02:42:58;37.23;;;19.33;;
29954;SDS011;68448;51.188;6.868;2024-03-08T02:45:25;31.23;;;17.37;;
29954;SDS011;68448;51.188;6.868;2024-03-08T02:47:52;27.63;;;16.60;;
29954;SDS011;68448;51.188;6.868;2024-03-08T02:50:20;32.80;;;17.77;;
29954;SDS011;68448;51.188;6.868;2024-03-08T02:52:47;33.27;;;17.77;;
29954;SDS011;68448;51.188;6.868;2024-03-08T02:55:15;35.70;;;21.60;;
29954;SDS011;68448;51.188;6.868;2024-03-08T02:57:43;27.40;;;15.83;;
29954;SDS011;68448;51.188;6.868;2024-03-08T03:00:10;40.70;;;20.33;;
29954;SDS011;68448;51.188;6.868;2024-03-08T03:02:37;32.30;;;18.33;;
29954;SDS011;68448;51.188;6.868;2024-03-08T03:05:05;32.67;;;17.57;;
29954;SDS011;68448;51.188;6.868;2024-03-08T03:07:32;27.93;;;16.80;;
29954;SDS011;68448;51.188;6.868;2024-03-08T03:10:00;33.73;;;18.03;;
29954;SDS011;68448;51.188;6.868;2024-03-08T03:12:29;31.50;;;17.67;;
29954;SDS011;68448;51.188;6.868;2024-03-08T03:14:56;31.33;;;17.87;;
29954;SDS011;68448;51.188;6.868;2024-03-08T03:17:23;28.87;;;16.57;;
29954;SDS011;68448;51.188;6.868;2024-03-08T03:19:51;30.97;;;17.50;;
29954;SDS011;68448;51.188;6.868;2024-03-08T03:22:18;30.37;;;17.13;;
29954;SDS011;68448;51.188;6.868;2024-03-08T03:24:46;30.43;;;16.43;;
29954;SDS011;68448;51.188;6.868;2024-03-08T03:27:13;32.40;;;18.10;;
29954;SDS011;68448;51.188;6.868;2024-03-08T03:29:42;25.83;;;16.90;;
29954;SDS011;68448;51.188;6.868;2024-03-08T03:32:09;29.70;;;16.47;;
29954;SDS011;68448;51.188;6.868;2024-03-08T03:34:36;24.57;;;14.73;;
29954;SDS011;68448;51.188;6.868;2024-03-08T03:37:04;32.67;;;18.30;;
29954;SDS011;68448;51.188;6.868;2024-03-08T03:39:31;31.50;;;17.20;;
29954;SDS011;68448;51.188;6.868;2024-03-08T03:41:58;31.60;;;17.20;;
29954;SDS011;68448;51.188;6.868;2024-03-08T03:44:25;37.40;;;20.00;;
29954;SDS011;68448;51.188;6.868;2024-03-08T03:46:54;30.57;;;16.10;;
29954;SDS011;68448;51.188;6.868;2024-03-08T03:49:21;33.63;;;18.43;;
29954;SDS011;68448;51.188;6.868;2024-03-08T03:51:49;40.30;;;18.17;;
29954;SDS011;68448;51.188;6.868;2024-03-08T03:54:16;32.97;;;17.50;;
29954;SDS011;68448;51.188;6.868;2024-03-08T03:56:43;30.40;;;17.30;;
29954;SDS011;68448;51.188;6.868;2024-03-08T03:59:10;29.03;;;16.70;;
29954;SDS011;68448;51.188;6.868;2024-03-08T04:01:41;34.93;;;17.20;;
29954;SDS011;68448;51.188;6.868;2024-03-08T04:04:10;31.10;;;15.73;;
29954;SDS011;68448;51.188;6.868;2024-03-08T04:06:37;38.90;;;18.80;;
29954;SDS011;68448;51.188;6.868;2024-03-08T04:09:04;31.30;;;17.13;;
29954;SDS011;68448;51.188;6.868;2024-03-08T04:11:32;37.70;;;18.13;;
29954;SDS011;68448;51.188;6.868;2024-03-08T04:13:59;35.77;;;18.70;;
29954;SDS011;68448;51.188;6.868;2024-03-08T04:16:26;32.50;;;17.63;;
29954;SDS011;68448;51.188;6.868;2024-03-08T04:18:54;32.87;;;15.90;;
29954;SDS011;68448;51.188;6.868;2024-03-08T04:21:22;27.37;;;16.83;;
29954;SDS011;68448;51.188;6.868;2024-03-08T04:23:49;27.07;;;16.93;;
29954;SDS011;68448;51.188;6.868;2024-03-08T04:26:17;30.43;;;18.03;;
29954;SDS011;68448;51.188;6.868;2024-03-08T04:28:45;33.33;;;17.73;;
29954;SDS011;68448;51.188;6.868;2024-03-08T04:31:12;30.53;;;16.57;;
29954;SDS011;68448;51.188;6.868;2024-03-08T04:33:39;30.37;;;16.80;;
29954;SDS011;68448;51.188;6.868;2024-03-08T04:36:07;30.70;;;16.47;;
29954;SDS011;68448;51.188;6.868;2024-03-08T04:38:36;31.10;;;17.30;;
29954;SDS011;68448;51.188;6.868;2024-03-08T04:41:03;25.53;;;15.23;;
29954;SDS011;68448;51.188;6.868;2024-03-08T04:43:31;27.90;;;15.93;;
29954;SDS011;68448;51.188;6.868;2024-03-08T04:45:58;29.97;;;17.30;;
29954;SDS011;68448;51.188;6.868;2024-03-08T04:48:25;32.37;;;17.27;;
29954;SDS011;68448;51.188;6.868;2024-03-08T04:50:52;28.03;;;15.20;;
29954;SDS011;68448;51.188;6.868;2024-03-08T04:53:20;31.90;;;17.80;;
29954;SDS011;68448;51.188;6.868;2024-03-08T04:55:48;33.13;;;17.17;;
29954;SDS011;68448;51.188;6.868;2024-03-08T04:58:15;31.43;;;17.13;;
29954;SDS011;68448;51.188;6.868;2024-03-08T05:00:43;33.20;;;17.93;;
29954;SDS011;68448;51.188;6.868;2024-03-08T05:03:10;38.60;;;16.90;;
29954;SDS011;68448;51.188;6.868;2024-03-08T05:05:37;36.43;;;17.90;;
29954;SDS011;68448;51.188;6.868;2024-03-08T05:08:05;33.57;;;18.37;;
29954;SDS011;68448;51.188;6.868;2024-03-08T05:10:32;32.07;;;17.93;;
29954;SDS011;68448;51.188;6.868;2024-03-08T05:13:01;36.80;;;18.73;;
29954;SDS011;68448;51.188;6.868;2024-03-08T05:15:28;31.53;;;16.93;;
29954;SDS011;68448;51.188;6.868;2024-03-08T05:17:55;31.03;;;17.60;;
29954;SDS011;68448;51.188;6.868;2024-03-08T05:20:22;34.90;;;17.40;;
29954;SDS011;68448;51.188;6.868;2024-03-08T05:22:50;32.00;;;16.80;;
29954;SDS011;68448;51.188;6.868;2024-03-08T05:25:17;32.00;;;17.50;;
29954;SDS011;68448;51.188;6.868;2024-03-08T05:27:44;36.83;;;18.17;;
29954;SDS011;68448;51.188;6.868;2024-03-08T05:30:13;31.17;;;17.40;;
29954;SDS011;68448;51.188;6.868;2024-03-08T05:32:41;31.00;;;16.17;;
29954;SDS011;68448;51.188;6.868;2024-03-08T05:35:08;40.87;;;17.80;;
29954;SDS011;68448;51.188;6.868;2024-03-08T05:37:35;32.63;;;16.87;;
29954;SDS011;68448;51.188;6.868;2024-03-08T05:40:03;36.70;;;17.00;;
29954;SDS011;68448;51.188;6.868;2024-03-08T05:42:30;33.10;;;17.27;;
29954;SDS011;68448;51.188;6.868;2024-03-08T05:44:58;36.90;;;19.20;;
29954;SDS011;68448;51.188;6.868;2024-03-08T05:47:26;33.30;;;19.13;;
29954;SDS011;68448;51.188;6.868;2024-03-08T05:49:56;38.17;;;19.00;;
29954;SDS011;68448;51.188;6.868;2024-03-08T05:52:24;31.90;;;18.30;;
29954;SDS011;68448;51.188;6.868;2024-03-08T05:54:51;36.77;;;17.33;;
29954;SDS011;68448;51.188;6.868;2024-03-08T05:57:18;37.93;;;17.90;;
29954;SDS011;68448;51.188;6.868;2024-03-08T05:59:46;31.77;;;17.33;;
29954;SDS011;68448;51.188;6.868;2024-03-08T06:02:13;40.60;;;18.47;;
29954;SDS011;68448;51.188;6.868;2024-03-08T06:04:42;35.77;;;18.60;;
29954;SDS011;68448;51.188;6.868;2024-03-08T06:07:09;35.67;;;18.73;;
29954;SDS011;68448;51.188;6.868;2024-03-08T06:09:36;38.13;;;18.10;;
29954;SDS011;68448;51.188;6.868;2024-03-08T06:12:04;31.47;;;17.57;;
29954;SDS011;68448;51.188;6.868;2024-03-08T06:14:31;31.57;;;16.87;;
29954;SDS011;68448;51.188;6.868;2024-03-08T06:16:58;34.50;;;18.23;;
29954;SDS011;68448;51.188;6.868;2024-03-08T06:19:25;36.77;;;17.10;;
29954;SDS011;68448;51.188;6.868;2024-03-08T06:21:54;29.53;;;17.33;;
29954;SDS011;68448;51.188;6.868;2024-03-08T06:24:21;36.83;;;18.77;;
29954;SDS011;68448;51.188;6.868;2024-03-08T06:26:48;34.50;;;17.07;;
29954;SDS011;68448;51.188;6.868;2024-03-08T06:29:15;34.90;;;18.50;;
29954;SDS011;68448;51.188;6.868;2024-03-08T06:31:43;29.33;;;16.40;;
29954;SDS011;68448;51.188;6.868;2024-03-08T06:34:10;33.07;;;16.97;;
29954;SDS011;68448;51.188;6.868;2024-03-08T06:36:37;33.90;;;17.47;;
29954;SDS011;68448;51.188;6.868;2024-03-08T06:39:06;32.97;;;16.57;;
29954;SDS011;68448;51.188;6.868;2024-03-08T06:41:33;40.07;;;19.07;;
29954;SDS011;68448;51.188;6.868;2024-03-08T06:44:03;31.90;;;19.00;;
29954;SDS011;68448;51.188;6.868;2024-03-08T06:46:30;34.83;;;17.67;;
29954;SDS011;68448;51.188;6.868;2024-03-08T06:48:57;29.77;;;17.30;;
29954;SDS011;68448;51.188;6.868;2024-03-08T06:51:24;32.27;;;18.60;;
29954;SDS011;68448;51.188;6.868;2024-03-08T06:53:52;34.57;;;18.87;;
29954;SDS011;68448;51.188;6.868;2024-03-08T06:56:20;34.17;;;19.63;;
29954;SDS011;68448;51.188;6.868;2024-03-08T06:58:48;35.13;;;18.10;;
29954;SDS011;68448;51.188;6.868;2024-03-08T07:01:15;32.43;;;17.07;;
29954;SDS011;68448;51.188;6.868;2024-03-08T07:03:42;32.50;;;16.77;;
29954;SDS011;68448;51.188;6.868;2024-03-08T07:06:09;33.30;;;17.77;;
29954;SDS011;68448;51.188;6.868;2024-03-08T07:08:36;34.17;;;18.33;;
29954;SDS011;68448;51.188;6.868;2024-03-08T07:11:04;36.53;;;17.47;;
29954;SDS011;68448;51.188;6.868;2024-03-08T07:13:32;32.37;;;16.60;;
29954;SDS011;68448;51.188;6.868;2024-03-08T07:16:00;32.97;;;17.53;;
29954;SDS011;68448;51.188;6.868;2024-03-08T07:18:28;36.73;;;17.33;;
29954;SDS011;68448;51.188;6.868;2024-03-08T07:20:55;34.27;;;17.90;;
29954;SDS011;68448;51.188;6.868;2024-03-08T07:23:23;28.27;;;17.30;;
29954;SDS011;68448;51.188;6.868;2024-03-08T07:25:50;32.93;;;17.43;;
29954;SDS011;68448;51.188;6.868;2024-03-08T07:28:17;30.90;;;17.60;;
29954;SDS011;68448;51.188;6.868;2024-03-08T07:30:46;37.50;;;19.93;;
29954;SDS011;68448;51.188;6.868;2024-03-08T07:33:13;32.20;;;17.57;;
29954;SDS011;68448;51.188;6.868;2024-03-08T07:35:41;31.30;;;17.20;;
29954;SDS011;68448;51.188;6.868;2024-03-08T07:38:09;34.60;;;17.87;;
29954;SDS011;68448;51.188;6.868;2024-03-08T07:40:37;35.40;;;17.87;;
29954;SDS011;68448;51.188;6.868;2024-03-08T07:43:04;30.20;;;16.97;;
29954;SDS011;68448;51.188;6.868;2024-03-08T07:45:31;30.90;;;16.57;;
29954;SDS011;68448;51.188;6.868;2024-03-08T07:48:00;27.07;;;15.50;;
29954;SDS011;68448;51.188;6.868;2024-03-08T07:50:27;28.20;;;16.10;;
29954;SDS011;68448;51.188;6.868;2024-03-08T07:52:54;30.10;;;18.40;;
29954;SDS011;68448;51.188;6.868;2024-03-08T07:55:21;29.10;;;16.43;;
29954;SDS011;68448;51.188;6.868;2024-03-08T07:57:49;28.07;;;17.27;;
29954;SDS011;68448;51.188;6.868;2024-03-08T08:00:16;32.73;;;16.10;;
29954;SDS011;68448;51.188;6.868;2024-03-08T08:02:44;32.17;;;17.40;;
29954;SDS011;68448;51.188;6.868;2024-03-08T08:05:13;29.40;;;16.07;;
29954;SDS011;68448;51.188;6.868;2024-03-08T08:07:43;30.03;;;16.23;;
29954;SDS011;68448;51.188;6.868;2024-03-08T08:10:11;25.97;;;15.43;;
29954;SDS011;68448;51.188;6.868;2024-03-08T08:12:38;30.83;;;16.97;;
29954;SDS011;68448;51.188;6.868;2024-03-08T08:15:06;28.40;;;16.67;;
29954;SDS011;68448;51.188;6.868;2024-03-08T08:17:36;26.23;;;15.30;;
29954;SDS011;68448;51.188;6.868;2024-03-08T08:20:03;31.67;;;16.50;;
29954;SDS011;68448;51.188;6.868;2024-03-08T08:22:32;26.43;;;14.83;;
29954;SDS011;68448;51.188;6.868;2024-03-08T08:24:59;24.50;;;14.50;;
29954;SDS011;68448;51.188;6.868;2024-03-08T08:27:26;28.50;;;16.83;;
29954;SDS011;68448;51.188;6.868;2024-03-08T08:29:54;29.17;;;14.17;;
29954;SDS011;68448;51.188;6.868;2024-03-08T08:32:21;21.87;;;13.23;;
29954;SDS011;68448;51.188;6.868;2024-03-08T08:34:48;24.33;;;13.90;;
29954;SDS011;68448;51.188;6.868;2024-03-08T08:37:15;25.67;;;14.70;;
29954;SDS011;68448;51.188;6.868;2024-03-08T08:39:46;28.53;;;15.60;;
29954;SDS011;68448;51.188;6.868;2024-03-08T08:42:14;22.63;;;13.93;;
29954;SDS011;68448;51.188;6.868;2024-03-08T08:44:41;23.10;;;13.67;;
29954;SDS011;68448;51.188;6.868;2024-03-08T08:47:08;20.60;;;12.40;;
29954;SDS011;68448;51.188;6.868;2024-03-08T08:49:41;26.23;;;13.07;;
29954;SDS011;68448;51.188;6.868;2024-03-08T08:52:09;24.67;;;13.20;;
29954;SDS011;68448;51.188;6.868;2024-03-08T08:54:42;22.47;;;14.30;;
29954;SDS011;68448;51.188;6.868;2024-03-08T08:57:13;22.03;;;12.83;;
29954;SDS011;68448;51.188;6.868;2024-03-08T08:59:40;20.70;;;13.30;;
29954;SDS011;68448;51.188;6.868;2024-03-08T09:02:08;21.20;;;13.20;;
29954;SDS011;68448;51.188;6.868;2024-03-08T09:04:38;20.53;;;12.83;;
29954;SDS011;68448;51.188;6.868;2024-03-08T09:07:05;24.93;;;15.37;;
29954;SDS011;68448;51.188;6.868;2024-03-08T09:09:32;22.90;;;13.63;;
29954;SDS011;68448;51.188;6.868;2024-03-08T09:11:59;24.40;;;13.80;;
29954;SDS011;68448;51.188;6.868;2024-03-08T09:14:28;21.77;;;12.43;;
29954;SDS011;68448;51.188;6.868;2024-03-08T09:16:56;21.87;;;13.43;;
29954;SDS011;68448;51.188;6.868;2024-03-08T09:19:23;22.83;;;12.63;;
29954;SDS011;68448;51.188;6.868;2024-03-08T09:21:50;19.47;;;12.33;;
29954;SDS011;68448;51.188;6.868;2024-03-08T09:24:18;20.10;;;12.87;;
29954;SDS011;68448;51.188;6.868;2024-03-08T09:26:45;23.70;;;13.00;;
29954;SDS011;68448;51.188;6.868;2024-03-08T09:29:12;19.73;;;13.57;;
29954;SDS011;68448;51.188;6.868;2024-03-08T09:31:40;21.20;;;13.40;;
29954;SDS011;68448;51.188;6.868;2024-03-08T09:34:08;20.83;;;14.07;;
29954;SDS011;68448;51.188;6.868;2024-03-08T09:36:42;22.13;;;12.80;;
29954;SDS011;68448;51.188;6.868;2024-03-08T09:39:09;20.67;;;14.77;;
29954;SDS011;68448;51.188;6.868;2024-03-08T09:41:36;19.20;;;13.37;;
29954;SDS011;68448;51.188;6.868;2024-03-08T09:44:04;19.87;;;13.30;;
29954;SDS011;68448;51.188;6.868;2024-03-08T09:46:31;17.90;;;13.90;;
29954;SDS011;68448;51.188;6.868;2024-03-08T09:48:59;18.30;;;12.90;;
29954;SDS011;68448;51.188;6.868;2024-03-08T09:51:27;18.90;;;13.53;;
29954;SDS011;68448;51.188;6.868;2024-03-08T09:53:54;20.63;;;14.27;;
29954;SDS011;68448;51.188;6.868;2024-03-08T09:56:22;18.80;;;12.73;;
29954;SDS011;68448;51.188;6.868;2024-03-08T09:58:50;16.10;;;13.20;;
29954;SDS011;68448;51.188;6.868;2024-03-08T10:01:17;15.87;;;12.90;;
29954;SDS011;68448;51.188;6.868;2024-03-08T10:03:46;16.07;;;12.47;;
29954;SDS011;68448;51.188;6.868;2024-03-08T10:06:15;22.33;;;13.50;;
29954;SDS011;68448;51.188;6.868;2024-03-08T10:08:42;16.60;;;12.80;;
29954;SDS011;68448;51.188;6.868;2024-03-08T10:11:11;13.33;;;11.67;;
29954;SDS011;68448;51.188;6.868;2024-03-08T10:13:39;16.47;;;13.00;;
29954;SDS011;68448;51.188;6.868;2024-03-08T10:16:06;17.00;;;12.07;;
29954;SDS011;68448;51.188;6.868;2024-03-08T10:18:33;17.37;;;12.97;;
29954;SDS011;68448;51.188;6.868;2024-03-08T10:21:04;21.13;;;12.30;;
29954;SDS011;68448;51.188;6.868;2024-03-08T10:23:33;16.07;;;11.70;;
29954;SDS011;68448;51.188;6.868;2024-03-08T10:28:43;13.93;;;11.07;;
29954;SDS011;68448;51.188;6.868;2024-03-08T10:31:11;17.17;;;12.30;;
29954;SDS011;68448;51.188;6.868;2024-03-08T10:33:44;16.20;;;11.00;;
29954;SDS011;68448;51.188;6.868;2024-03-08T10:36:11;14.40;;;10.90;;
29954;SDS011;68448;51.188;6.868;2024-03-08T10:38:40;13.13;;;10.20;;
29954;SDS011;68448;51.188;6.868;2024-03-08T10:41:08;14.67;;;11.30;;
29954;SDS011;68448;51.188;6.868;2024-03-08T10:43:40;12.67;;;10.90;;
29954;SDS011;68448;51.188;6.868;2024-03-08T10:46:13;13.23;;;11.40;;
29954;SDS011;68448;51.188;6.868;2024-03-08T10:48:44;14.10;;;11.43;;
29954;SDS011;68448;51.188;6.868;2024-03-08T10:51:11;15.40;;;11.60;;
29954;SDS011;68448;51.188;6.868;2024-03-08T10:53:40;12.77;;;10.63;;
29954;SDS011;68448;51.188;6.868;2024-03-08T10:56:08;13.90;;;10.80;;
29954;SDS011;68448;51.188;6.868;2024-03-08T10:58:36;13.03;;;10.50;;
29954;SDS011;68448;51.188;6.868;2024-03-08T11:01:03;13.03;;;9.60;;
29954;SDS011;68448;51.188;6.868;2024-03-08T11:03:43;11.63;;;9.10;;
29954;SDS011;68448;51.188;6.868;2024-03-08T11:06:13;11.37;;;9.17;;
29954;SDS011;68448;51.188;6.868;2024-03-08T11:08:42;11.60;;;8.90;;
29954;SDS011;68448;51.188;6.868;2024-03-08T11:11:23;11.50;;;9.00;;
29954;SDS011;68448;51.188;6.868;2024-03-08T11:13:51;11.03;;;9.00;;
29954;SDS011;68448;51.188;6.868;2024-03-08T11:16:36;10.83;;;8.93;;
29954;SDS011;68448;51.188;6.868;2024-03-08T11:19:05;9.47;;;8.50;;
29954;SDS011;68448;51.188;6.868;2024-03-08T11:21:33;13.37;;;9.50;;
29954;SDS011;68448;51.188;6.868;2024-03-08T11:24:01;9.77;;;8.77;;
29954;SDS011;68448;51.188;6.868;2024-03-08T11:26:29;10.40;;;9.33;;
29954;SDS011;68448;51.188;6.868;2024-03-08T11:28:56;11.27;;;8.67;;
29954;SDS011;68448;51.188;6.868;2024-03-08T11:31:43;10.93;;;8.43;;
29954;SDS011;68448;51.188;6.868;2024-03-08T11:34:14;12.57;;;9.30;;
29954;SDS011;68448;51.188;6.868;2024-03-08T11:36:42;11.93;;;9.47;;
29954;SDS011;68448;51.188;6.868;2024-03-08T11:39:10;10.33;;;8.73;;
29954;SDS011;68448;51.188;6.868;2024-03-08T11:41:38;12.60;;;9.27;;
29954;SDS011;68448;51.188;6.868;2024-03-08T11:44:05;12.23;;;9.33;;
29954;SDS011;68448;51.188;6.868;2024-03-08T11:46:33;10.33;;;8.43;;
29954;SDS011;68448;51.188;6.868;2024-03-08T11:49:00;10.93;;;9.07;;
29954;SDS011;68448;51.188;6.868;2024-03-08T11:51:28;10.80;;;8.80;;
29954;SDS011;68448;51.188;6.868;2024-03-08T11:53:55;11.80;;;8.63;;
29954;SDS011;68448;51.188;6.868;2024-03-08T11:56:23;11.83;;;9.23;;
29954;SDS011;68448;51.188;6.868;2024-03-08T11:58:54;16.03;;;9.50;;
29954;SDS011;68448;51.188;6.868;2024-03-08T12:01:21;9.93;;;8.50;;
29954;SDS011;68448;51.188;6.868;2024-03-08T12:03:52;11.03;;;9.60;;
29954;SDS011;68448;51.188;6.868;2024-03-08T12:06:19;10.30;;;9.27;;
29954;SDS011;68448;51.188;6.868;2024-03-08T12:08:47;9.60;;;8.70;;
29954;SDS011;68448;51.188;6.868;2024-03-08T12:11:14;11.90;;;8.53;;
29954;SDS011;68448;51.188;6.868;2024-03-08T12:13:42;10.50;;;8.37;;
29954;SDS011;68448;51.188;6.868;2024-03-08T12:16:10;12.23;;;9.83;;
29954;SDS011;68448;51.188;6.868;2024-03-08T12:18:37;8.50;;;7.67;;
29954;SDS011;68448;51.188;6.868;2024-03-08T12:21:05;11.30;;;9.13;;
29954;SDS011;68448;51.188;6.868;2024-03-08T12:23:33;9.90;;;8.10;;
29954;SDS011;68448;51.188;6.868;2024-03-08T12:26:08;9.50;;;7.50;;
29954;SDS011;68448;51.188;6.868;2024-03-08T12:28:36;15.43;;;9.23;;
29954;SDS011;68448;51.188;6.868;2024-03-08T12:31:06;11.90;;;8.90;;
29954;SDS011;68448;51.188;6.868;2024-03-08T12:33:33;9.57;;;8.57;;
29954;SDS011;68448;51.188;6.868;2024-03-08T12:36:00;8.63;;;7.70;;
29954;SDS011;68448;51.188;6.868;2024-03-08T12:38:28;10.80;;;8.03;;
29954;SDS011;68448;51.188;6.868;2024-03-08T12:40:55;11.30;;;9.10;;
29954;SDS011;68448;51.188;6.868;2024-03-08T12:43:22;8.37;;;7.20;;
29954;SDS011;68448;51.188;6.868;2024-03-08T12:45:50;9.77;;;8.40;;
29954;SDS011;68448;51.188;6.868;2024-03-08T12:48:18;10.10;;;8.33;;
29954;SDS011;68448;51.188;6.868;2024-03-08T12:50:45;13.60;;;8.93;;
29954;SDS011;68448;51.188;6.868;2024-03-08T12:53:13;12.17;;;9.00;;
29954;SDS011;68448;51.188;6.868;2024-03-08T12:55:40;9.87;;;8.87;;
29954;SDS011;68448;51.188;6.868;2024-03-08T12:58:08;9.03;;;8.13;;
29954;SDS011;68448;51.188;6.868;2024-03-08T13:00:35;11.23;;;8.40;;
29954;SDS011;68448;51.188;6.868;2024-03-08T13:03:03;10.83;;;9.47;;
29954;SDS011;68448;51.188;6.868;2024-03-08T13:05:31;10.13;;;9.03;;
29954;SDS011;68448;51.188;6.868;2024-03-08T13:07:58;12.30;;;10.90;;
29954;SDS011;68448;51.188;6.868;2024-03-08T13:10:25;11.93;;;10.07;;
29954;SDS011;68448;51.188;6.868;2024-03-08T13:12:53;12.50;;;9.70;;
29954;SDS011;68448;51.188;6.868;2024-03-08T13:15:20;10.30;;;9.03;;
29954;SDS011;68448;51.188;6.868;2024-03-08T13:17:47;10.63;;;9.57;;
29954;SDS011;68448;51.188;6.868;2024-03-08T13:20:15;9.23;;;8.33;;
29954;SDS011;68448;51.188;6.868;2024-03-08T13:22:46;9.17;;;8.27;;
29954;SDS011;68448;51.188;6.868;2024-03-08T13:25:14;10.73;;;8.80;;
29954;SDS011;68448;51.188;6.868;2024-03-08T13:27:41;10.48;;;9.32;;
29954;SDS011;68448;51.188;6.868;2024-03-08T13:30:09;10.48;;;8.50;;
29954;SDS011;68448;51.188;6.868;2024-03-08T13:32:36;11.43;;;9.27;;
29954;SDS011;68448;51.188;6.868;2024-03-08T13:35:04;9.40;;;8.40;;
29954;SDS011;68448;51.188;6.868;2024-03-08T13:37:31;8.97;;;8.07;;
29954;SDS011;68448;51.188;6.868;2024-03-08T13:40:01;11.30;;;8.63;;
29954;SDS011;68448;51.188;6.868;2024-03-08T13:42:28;11.60;;;9.33;;
29954;SDS011;68448;51.188;6.868;2024-03-08T13:44:55;11.70;;;9.37;;
29954;SDS011;68448;51.188;6.868;2024-03-08T13:47:22;10.13;;;9.10;;
29954;SDS011;68448;51.188;6.868;2024-03-08T13:49:49;12.05;;;9.75;;
29954;SDS011;68448;51.188;6.868;2024-03-08T13:52:17;12.25;;;9.70;;
29954;SDS011;68448;51.188;6.868;2024-03-08T13:54:44;9.05;;;8.15;;
29954;SDS011;68448;51.188;6.868;2024-03-08T13:57:12;9.32;;;8.32;;
29954;SDS011;68448;51.188;6.868;2024-03-08T13:59:40;10.05;;;8.75;;
29954;SDS011;68448;51.188;6.868;2024-03-08T14:02:07;11.85;;;9.75;;
29954;SDS011;68448;51.188;6.868;2024-03-08T14:04:34;11.17;;;9.67;;
29954;SDS011;68448;51.188;6.868;2024-03-08T14:07:01;9.80;;;8.80;;
29954;SDS011;68448;51.188;6.868;2024-03-08T14:09:29;10.30;;;9.30;;
29954;SDS011;68448;51.188;6.868;2024-03-08T14:11:56;11.37;;;9.70;;
29954;SDS011;68448;51.188;6.868;2024-03-08T14:14:24;10.17;;;9.17;;
29954;SDS011;68448;51.188;6.868;2024-03-08T14:16:51;9.87;;;8.87;;
29954;SDS011;68448;51.188;6.868;2024-03-08T14:19:19;11.23;;;9.90;;
29954;SDS011;68448;51.188;6.868;2024-03-08T14:21:46;11.20;;;9.30;;
29954;SDS011;68448;51.188;6.868;2024-03-08T14:24:14;12.07;;;9.67;;
29954;SDS011;68448;51.188;6.868;2024-03-08T14:26:41;11.03;;;9.67;;
29954;SDS011;68448;51.188;6.868;2024-03-08T14:29:09;12.10;;;10.10;;
29954;SDS011;68448;51.188;6.868;2024-03-08T14:31:37;10.13;;;9.03;;